sensor_id;sensor_type;location;lat;lon;timestamp;pressure;altitude;pressure_sealevel;temperature;humidity
32733;BME280;11867;51.198;11.966;2023-04-20T00:00:36;100819.97;;;6.58;96.29
32733;BME280;11867;51.198;11.966;2023-04-20T00:01:38;100814.75;;;6.85;94.75
32733;BME280;11867;51.198;11.966;2023-04-20T00:02:40;100812.63;;;6.70;94.08
32733;BME280;11867;51.198;11.966;2023-04-20T00:03:43;100814.06;;;6.61;94.00
32733;BME280;11867;51.198;11.966;2023-04-20T00:04:45;100813.25;;;6.77;93.75
32733;BME280;11867;51.198;11.966;2023-04-20T00:05:47;100818.56;;;6.55;93.68
32733;BME280;11867;51.198;11.966;2023-04-20T00:06:50;100818.06;;;6.58;94.70
32733;BME280;11867;51.198;11.966;2023-04-20T00:07:52;100810.84;;;6.47;93.78
32733;BME280;11867;51.198;11.966;2023-04-20T00:08:55;100819.53;;;6.20;95.63
32733;BME280;11867;51.198;11.966;2023-04-20T00:09:57;100819.31;;;6.10;96.40
32733;BME280;11867;51.198;11.966;2023-04-20T00:11:01;100822.03;;;5.63;99.05
32733;BME280;11867;51.198;11.966;2023-04-20T00:12:03;100820.63;;;5.72;99.85
32733;BME280;11867;51.198;11.966;2023-04-20T00:13:06;100817.44;;;5.75;100.00
32733;BME280;11867;51.198;11.966;2023-04-20T00:14:07;100818.72;;;5.84;100.00
32733;BME280;11867;51.198;11.966;2023-04-20T00:15:10;100813.56;;;5.83;98.96
32733;BME280;11867;51.198;11.966;2023-04-20T00:16:12;100818.72;;;5.84;99.84
32733;BME280;11867;51.198;11.966;2023-04-20T00:17:14;100818.84;;;5.90;99.80
32733;BME280;11867;51.198;11.966;2023-04-20T00:18:16;100809.81;;;5.60;100.00
32733;BME280;11867;51.198;11.966;2023-04-20T00:19:18;100818.84;;;5.90;99.69
32733;BME280;11867;51.198;11.966;2023-04-20T00:20:23;100814.94;;;6.09;99.16
32733;BME280;11867;51.198;11.966;2023-04-20T00:21:26;100805.97;;;6.20;97.96
32733;BME280;11867;51.198;11.966;2023-04-20T00:22:28;100817.81;;;5.79;98.67
32733;BME280;11867;51.198;11.966;2023-04-20T00:23:31;100819.16;;;5.93;99.62
32733;BME280;11867;51.198;11.966;2023-04-20T00:24:32;100820.81;;;5.94;99.49
32733;BME280;11867;51.198;11.966;2023-04-20T00:25:35;100806.59;;;5.99;98.78
32733;BME280;11867;51.198;11.966;2023-04-20T00:26:38;100809.28;;;6.11;98.62
32733;BME280;11867;51.198;11.966;2023-04-20T00:27:41;100810.22;;;5.93;97.37
32733;BME280;11867;51.198;11.966;2023-04-20T00:28:43;100810.84;;;5.95;98.10
32733;BME280;11867;51.198;11.966;2023-04-20T00:29:45;100809.31;;;5.87;98.35
32733;BME280;11867;51.198;11.966;2023-04-20T00:30:47;100807.19;;;6.01;98.51
32733;BME280;11867;51.198;11.966;2023-04-20T00:31:50;100805.63;;;6.17;97.53
32733;BME280;11867;51.198;11.966;2023-04-20T00:32:52;100804.91;;;6.21;97.31
32733;BME280;11867;51.198;11.966;2023-04-20T00:33:57;100808.56;;;6.15;96.96
32733;BME280;11867;51.198;11.966;2023-04-20T00:35:02;100815.16;;;6.19;96.65
32733;BME280;11867;51.198;11.966;2023-04-20T00:36:05;100805.94;;;5.56;99.01
32733;BME280;11867;51.198;11.966;2023-04-20T00:37:07;100808.97;;;5.72;99.76
32733;BME280;11867;51.198;11.966;2023-04-20T00:38:10;100807.94;;;5.73;99.74
32733;BME280;11867;51.198;11.966;2023-04-20T00:39:11;100805.94;;;5.44;100.00
32733;BME280;11867;51.198;11.966;2023-04-20T00:40:14;100807.56;;;5.57;100.00
32733;BME280;11867;51.198;11.966;2023-04-20T00:41:16;100808.75;;;5.73;100.00
32733;BME280;11867;51.198;11.966;2023-04-20T00:42:20;100803.06;;;5.86;99.58
32733;BME280;11867;51.198;11.966;2023-04-20T00:43:21;100809.09;;;5.65;99.57
32733;BME280;11867;51.198;11.966;2023-04-20T00:44:24;100800.84;;;5.83;99.34
32733;BME280;11867;51.198;11.966;2023-04-20T00:45:26;100801.56;;;5.67;99.47
32733;BME280;11867;51.198;11.966;2023-04-20T00:46:28;100806.28;;;5.48;99.84
32733;BME280;11867;51.198;11.966;2023-04-20T00:47:30;100800.72;;;5.78;100.00
32733;BME280;11867;51.198;11.966;2023-04-20T00:48:32;100804.97;;;5.86;99.52
32733;BME280;11867;51.198;11.966;2023-04-20T00:49:34;100800.16;;;6.00;99.01
32733;BME280;11867;51.198;11.966;2023-04-20T00:50:38;100794.06;;;6.21;97.46
32733;BME280;11867;51.198;11.966;2023-04-20T00:51:40;100796.75;;;6.33;96.79
32733;BME280;11867;51.198;11.966;2023-04-20T00:52:43;100801.03;;;6.46;95.78
32733;BME280;11867;51.198;11.966;2023-04-20T00:53:45;100799.34;;;6.28;95.59
32733;BME280;11867;51.198;11.966;2023-04-20T00:54:48;100795.94;;;6.33;96.17
32733;BME280;11867;51.198;11.966;2023-04-20T00:55:51;100795.94;;;6.33;95.47
32733;BME280;11867;51.198;11.966;2023-04-20T00:56:53;100791.88;;;6.47;95.46
32733;BME280;11867;51.198;11.966;2023-04-20T00:57:57;100795.22;;;6.25;95.89
32733;BME280;11867;51.198;11.966;2023-04-20T00:59:00;100798.00;;;6.42;95.37
32733;BME280;11867;51.198;11.966;2023-04-20T01:00:04;100788.47;;;6.69;94.87
32733;BME280;11867;51.198;11.966;2023-04-20T01:01:08;100796.78;;;6.21;94.27
32733;BME280;11867;51.198;11.966;2023-04-20T01:02:11;100800.47;;;5.92;96.43
32733;BME280;11867;51.198;11.966;2023-04-20T01:03:12;100800.72;;;5.90;97.55
32733;BME280;11867;51.198;11.966;2023-04-20T01:04:15;100804.00;;;5.92;97.78
32733;BME280;11867;51.198;11.966;2023-04-20T01:05:18;100783.16;;;6.16;97.77
32733;BME280;11867;51.198;11.966;2023-04-20T01:06:21;100787.09;;;6.25;97.08
32733;BME280;11867;51.198;11.966;2023-04-20T01:07:23;100789.72;;;6.20;96.31
32733;BME280;11867;51.198;11.966;2023-04-20T01:08:25;100783.78;;;5.95;97.24
32733;BME280;11867;51.198;11.966;2023-04-20T01:09:27;100786.44;;;6.18;97.23
32733;BME280;11867;51.198;11.966;2023-04-20T01:10:30;100786.97;;;6.32;95.96
32733;BME280;11867;51.198;11.966;2023-04-20T01:11:32;100790.31;;;6.22;96.20
32733;BME280;11867;51.198;11.966;2023-04-20T01:12:35;100793.41;;;5.91;97.24
32733;BME280;11867;51.198;11.966;2023-04-20T01:13:37;100793.88;;;5.99;98.19
32733;BME280;11867;51.198;11.966;2023-04-20T01:14:41;100791.66;;;5.84;97.95
32733;BME280;11867;51.198;11.966;2023-04-20T01:15:42;100781.88;;;6.07;97.17
32733;BME280;11867;51.198;11.966;2023-04-20T01:16:45;100787.50;;;6.17;97.22
32733;BME280;11867;51.198;11.966;2023-04-20T01:17:47;100783.97;;;5.93;96.90
32733;BME280;11867;51.198;11.966;2023-04-20T01:18:50;100785.53;;;6.01;97.19
32733;BME280;11867;51.198;11.966;2023-04-20T01:19:52;100780.63;;;5.98;98.12
32733;BME280;11867;51.198;11.966;2023-04-20T01:20:54;100781.69;;;6.25;97.47
32733;BME280;11867;51.198;11.966;2023-04-20T01:21:56;100774.94;;;6.40;96.37
32733;BME280;11867;51.198;11.966;2023-04-20T01:23:00;100777.78;;;6.33;96.44
32733;BME280;11867;51.198;11.966;2023-04-20T01:24:02;100779.09;;;6.31;96.03
32733;BME280;11867;51.198;11.966;2023-04-20T01:25:05;100779.88;;;6.14;96.73
32733;BME280;11867;51.198;11.966;2023-04-20T01:26:08;100767.03;;;6.38;96.17
32733;BME280;11867;51.198;11.966;2023-04-20T01:27:11;100766.59;;;6.58;95.87
32733;BME280;11867;51.198;11.966;2023-04-20T01:28:13;100769.53;;;6.57;94.90
32733;BME280;11867;51.198;11.966;2023-04-20T01:29:16;100768.34;;;6.64;94.86
32733;BME280;11867;51.198;11.966;2023-04-20T01:30:18;100757.31;;;6.54;94.85
32733;BME280;11867;51.198;11.966;2023-04-20T01:31:21;100764.81;;;6.64;94.51
32733;BME280;11867;51.198;11.966;2023-04-20T01:32:23;100761.13;;;6.70;94.57
32733;BME280;11867;51.198;11.966;2023-04-20T01:33:26;100759.00;;;6.89;93.91
32733;BME280;11867;51.198;11.966;2023-04-20T01:34:27;100756.59;;;6.76;93.46
32733;BME280;11867;51.198;11.966;2023-04-20T01:35:30;100752.41;;;6.51;94.26
32733;BME280;11867;51.198;11.966;2023-04-20T01:36:31;100757.72;;;6.63;94.58
32733;BME280;11867;51.198;11.966;2023-04-20T01:37:34;100752.72;;;6.55;94.80
32733;BME280;11867;51.198;11.966;2023-04-20T01:38:37;100754.22;;;6.62;95.26
32733;BME280;11867;51.198;11.966;2023-04-20T01:39:40;100759.16;;;6.82;94.61
32733;BME280;11867;51.198;11.966;2023-04-20T01:40:42;100760.72;;;6.33;95.89
32733;BME280;11867;51.198;11.966;2023-04-20T01:41:44;100761.44;;;6.28;96.59
32733;BME280;11867;51.198;11.966;2023-04-20T01:42:47;100755.69;;;6.24;97.01
32733;BME280;11867;51.198;11.966;2023-04-20T01:43:49;100756.56;;;6.59;96.22
32733;BME280;11867;51.198;11.966;2023-04-20T01:44:51;100755.75;;;6.01;97.37
32733;BME280;11867;51.198;11.966;2023-04-20T01:45:53;100753.38;;;6.16;97.42
32733;BME280;11867;51.198;11.966;2023-04-20T01:46:55;100756.47;;;6.08;97.62
32733;BME280;11867;51.198;11.966;2023-04-20T01:47:57;100753.06;;;6.30;97.88
32733;BME280;11867;51.198;11.966;2023-04-20T01:49:00;100749.00;;;6.44;96.48
32733;BME280;11867;51.198;11.966;2023-04-20T01:50:01;100756.94;;;6.05;97.39
32733;BME280;11867;51.198;11.966;2023-04-20T01:51:04;100755.81;;;6.18;97.73
32733;BME280;11867;51.198;11.966;2023-04-20T01:52:06;100744.56;;;6.09;97.89
32733;BME280;11867;51.198;11.966;2023-04-20T01:53:08;100753.31;;;6.28;97.33
32733;BME280;11867;51.198;11.966;2023-04-20T01:54:12;100752.69;;;6.38;96.66
32733;BME280;11867;51.198;11.966;2023-04-20T01:55:14;100753.22;;;6.52;95.95
32733;BME280;11867;51.198;11.966;2023-04-20T01:56:18;100757.63;;;6.12;97.34
32733;BME280;11867;51.198;11.966;2023-04-20T01:57:20;100745.06;;;6.35;97.51
32733;BME280;11867;51.198;11.966;2023-04-20T01:58:22;100752.47;;;6.56;96.02
32733;BME280;11867;51.198;11.966;2023-04-20T01:59:25;100748.38;;;6.54;95.41
32733;BME280;11867;51.198;11.966;2023-04-20T02:00:26;100747.56;;;6.53;95.86
32733;BME280;11867;51.198;11.966;2023-04-20T02:01:29;100752.31;;;6.63;95.67
32733;BME280;11867;51.198;11.966;2023-04-20T02:02:30;100750.47;;;6.80;94.71
32733;BME280;11867;51.198;11.966;2023-04-20T02:03:33;100749.03;;;6.78;94.69
32733;BME280;11867;51.198;11.966;2023-04-20T02:04:35;100753.16;;;6.97;93.62
32733;BME280;11867;51.198;11.966;2023-04-20T02:05:38;100755.19;;;6.73;93.98
32733;BME280;11867;51.198;11.966;2023-04-20T02:06:39;100755.22;;;6.90;93.99
32733;BME280;11867;51.198;11.966;2023-04-20T02:07:42;100745.28;;;6.96;93.99
32733;BME280;11867;51.198;11.966;2023-04-20T02:08:43;100746.13;;;6.51;94.74
32733;BME280;11867;51.198;11.966;2023-04-20T02:09:47;100754.59;;;6.54;95.98
32733;BME280;11867;51.198;11.966;2023-04-20T02:10:49;100755.97;;;6.11;97.44
32733;BME280;11867;51.198;11.966;2023-04-20T02:11:51;100760.25;;;6.24;98.05
32733;BME280;11867;51.198;11.966;2023-04-20T02:12:53;100745.56;;;6.49;97.68
32733;BME280;11867;51.198;11.966;2023-04-20T02:13:56;100750.66;;;6.45;97.52
32733;BME280;11867;51.198;11.966;2023-04-20T02:14:57;100747.28;;;6.55;97.03
32733;BME280;11867;51.198;11.966;2023-04-20T02:16:00;100751.75;;;6.61;96.32
32733;BME280;11867;51.198;11.966;2023-04-20T02:17:01;100752.78;;;6.43;96.57
32733;BME280;11867;51.198;11.966;2023-04-20T02:18:04;100752.97;;;6.53;96.84
32733;BME280;11867;51.198;11.966;2023-04-20T02:19:06;100754.94;;;6.58;96.59
32733;BME280;11867;51.198;11.966;2023-04-20T02:20:10;100756.94;;;6.34;97.06
32733;BME280;11867;51.198;11.966;2023-04-20T02:21:12;100753.38;;;6.45;96.83
32733;BME280;11867;51.198;11.966;2023-04-20T02:22:17;100747.56;;;6.53;96.82
32733;BME280;11867;51.198;11.966;2023-04-20T02:23:18;100749.19;;;6.54;96.77
32733;BME280;11867;51.198;11.966;2023-04-20T02:24:21;100751.50;;;6.62;96.79
32733;BME280;11867;51.198;11.966;2023-04-20T02:25:24;100755.94;;;6.69;96.58
32733;BME280;11867;51.198;11.966;2023-04-20T02:26:26;100759.00;;;6.89;95.62
32733;BME280;11867;51.198;11.966;2023-04-20T02:27:28;100748.78;;;6.62;95.53
32733;BME280;11867;51.198;11.966;2023-04-20T02:28:31;100755.94;;;6.69;95.83
32733;BME280;11867;51.198;11.966;2023-04-20T02:29:32;100751.69;;;6.73;95.65
32733;BME280;11867;51.198;11.966;2023-04-20T02:30:35;100750.78;;;6.84;95.33
32733;BME280;11867;51.198;11.966;2023-04-20T02:31:37;100740.25;;;7.04;94.71
32733;BME280;11867;51.198;11.966;2023-04-20T02:32:39;100741.97;;;7.11;93.73
32733;BME280;11867;51.198;11.966;2023-04-20T02:33:42;100747.81;;;6.69;94.51
32733;BME280;11867;51.198;11.966;2023-04-20T02:34:44;100749.88;;;6.78;95.30
32733;BME280;11867;51.198;11.966;2023-04-20T02:35:47;100748.00;;;6.33;96.61
32733;BME280;11867;51.198;11.966;2023-04-20T02:36:48;100755.91;;;6.52;97.26
32733;BME280;11867;51.198;11.966;2023-04-20T02:37:51;100754.16;;;6.74;96.17
32733;BME280;11867;51.198;11.966;2023-04-20T02:38:52;100757.16;;;6.32;96.72
32733;BME280;11867;51.198;11.966;2023-04-20T02:39:55;100753.94;;;6.47;97.75
32733;BME280;11867;51.198;11.966;2023-04-20T02:40:58;100747.06;;;6.73;97.06
32733;BME280;11867;51.198;11.966;2023-04-20T02:42:01;100748.13;;;6.55;96.23
32733;BME280;11867;51.198;11.966;2023-04-20T02:43:02;100751.31;;;6.23;97.97
32733;BME280;11867;51.198;11.966;2023-04-20T02:44:05;100746.78;;;6.12;99.60
32733;BME280;11867;51.198;11.966;2023-04-20T02:45:08;100748.63;;;6.23;99.45
32733;BME280;11867;51.198;11.966;2023-04-20T02:46:11;100745.94;;;6.40;98.81
32733;BME280;11867;51.198;11.966;2023-04-20T02:47:13;100749.59;;;6.46;98.53
32733;BME280;11867;51.198;11.966;2023-04-20T02:48:15;100745.34;;;6.21;99.01
32733;BME280;11867;51.198;11.966;2023-04-20T02:49:17;100743.00;;;6.13;100.00
32733;BME280;11867;51.198;11.966;2023-04-20T02:50:20;100739.38;;;6.07;99.89
32733;BME280;11867;51.198;11.966;2023-04-20T02:51:21;100744.03;;;5.83;100.00
32733;BME280;11867;51.198;11.966;2023-04-20T02:52:24;100737.97;;;5.93;100.00
32733;BME280;11867;51.198;11.966;2023-04-20T02:53:26;100743.81;;;5.73;100.00
32733;BME280;11867;51.198;11.966;2023-04-20T02:54:28;100729.91;;;5.81;100.00
32733;BME280;11867;51.198;11.966;2023-04-20T02:55:30;100737.22;;;6.21;100.00
32733;BME280;11867;51.198;11.966;2023-04-20T02:56:34;100731.59;;;6.40;100.00
32733;BME280;11867;51.198;11.966;2023-04-20T02:57:36;100737.78;;;6.23;99.73
32733;BME280;11867;51.198;11.966;2023-04-20T02:58:38;100735.13;;;6.12;100.00
32733;BME280;11867;51.198;11.966;2023-04-20T02:59:40;100733.34;;;5.77;100.00
32733;BME280;11867;51.198;11.966;2023-04-20T03:00:43;100739.63;;;5.42;100.00
32733;BME280;11867;51.198;11.966;2023-04-20T03:01:45;100740.16;;;5.79;100.00
32733;BME280;11867;51.198;11.966;2023-04-20T03:02:47;100736.22;;;5.99;100.00
32733;BME280;11867;51.198;11.966;2023-04-20T03:03:49;100729.53;;;5.90;100.00
32733;BME280;11867;51.198;11.966;2023-04-20T03:04:52;100738.84;;;5.70;100.00
32733;BME280;11867;51.198;11.966;2023-04-20T03:05:54;100746.78;;;5.48;100.00
32733;BME280;11867;51.198;11.966;2023-04-20T03:06:58;100737.09;;;5.64;100.00
32733;BME280;11867;51.198;11.966;2023-04-20T03:08:00;100749.94;;;5.57;100.00
32733;BME280;11867;51.198;11.966;2023-04-20T03:09:05;100743.13;;;5.54;100.00
32733;BME280;11867;51.198;11.966;2023-04-20T03:10:13;100756.91;;;5.53;100.00
32733;BME280;11867;51.198;11.966;2023-04-20T03:11:15;100737.66;;;5.90;100.00
32733;BME280;11867;51.198;11.966;2023-04-20T03:12:18;100743.47;;;5.58;100.00
32733;BME280;11867;51.198;11.966;2023-04-20T03:13:22;100748.78;;;5.29;100.00
32733;BME280;11867;51.198;11.966;2023-04-20T03:14:24;100752.53;;;5.52;100.00
32733;BME280;11867;51.198;11.966;2023-04-20T03:15:27;100749.38;;;5.31;100.00
32733;BME280;11867;51.198;11.966;2023-04-20T03:16:28;100753.03;;;5.49;100.00
32733;BME280;11867;51.198;11.966;2023-04-20T03:17:31;100753.41;;;5.17;100.00
32733;BME280;11867;51.198;11.966;2023-04-20T03:18:32;100750.44;;;5.30;100.00
32733;BME280;11867;51.198;11.966;2023-04-20T03:19:35;100748.91;;;5.34;100.00
32733;BME280;11867;51.198;11.966;2023-04-20T03:20:37;100750.53;;;5.35;100.00
32733;BME280;11867;51.198;11.966;2023-04-20T03:21:40;100749.16;;;5.21;100.00
32733;BME280;11867;51.198;11.966;2023-04-20T03:22:42;100743.84;;;5.26;100.00
32733;BME280;11867;51.198;11.966;2023-04-20T03:23:44;100746.22;;;5.34;100.00
32733;BME280;11867;51.198;11.966;2023-04-20T03:24:46;100748.09;;;5.34;100.00
32733;BME280;11867;51.198;11.966;2023-04-20T03:25:52;100753.13;;;5.18;100.00
32733;BME280;11867;51.198;11.966;2023-04-20T03:26:58;100753.50;;;4.98;100.00
32733;BME280;11867;51.198;11.966;2023-04-20T03:28:02;100750.31;;;5.01;100.00
32733;BME280;11867;51.198;11.966;2023-04-20T03:29:04;100752.44;;;5.11;100.00
32733;BME280;11867;51.198;11.966;2023-04-20T03:30:07;100751.28;;;5.19;100.00
32733;BME280;11867;51.198;11.966;2023-04-20T03:31:09;100754.19;;;5.05;100.00
32733;BME280;11867;51.198;11.966;2023-04-20T03:32:12;100751.97;;;5.02;100.00
32733;BME280;11867;51.198;11.966;2023-04-20T03:33:14;100757.25;;;5.44;100.00
32733;BME280;11867;51.198;11.966;2023-04-20T03:34:16;100756.31;;;5.39;100.00
32733;BME280;11867;51.198;11.966;2023-04-20T03:35:18;100754.78;;;5.08;100.00
32733;BME280;11867;51.198;11.966;2023-04-20T03:36:21;100752.66;;;4.86;100.00
32733;BME280;11867;51.198;11.966;2023-04-20T03:37:24;100753.59;;;5.03;100.00
32733;BME280;11867;51.198;11.966;2023-04-20T03:38:26;100757.97;;;5.04;100.00
32733;BME280;11867;51.198;11.966;2023-04-20T03:39:28;100750.78;;;5.10;100.00
32733;BME280;11867;51.198;11.966;2023-04-20T03:40:30;100755.50;;;5.15;100.00
32733;BME280;11867;51.198;11.966;2023-04-20T03:41:32;100760.78;;;5.21;100.00
32733;BME280;11867;51.198;11.966;2023-04-20T03:42:34;100761.94;;;5.14;100.00
32733;BME280;11867;51.198;11.966;2023-04-20T03:43:38;100758.22;;;5.15;100.00
32733;BME280;11867;51.198;11.966;2023-04-20T03:44:42;100757.28;;;5.21;100.00
32733;BME280;11867;51.198;11.966;2023-04-20T03:45:44;100766.19;;;5.33;100.00
32733;BME280;11867;51.198;11.966;2023-04-20T03:46:46;100757.13;;;5.39;100.00
32733;BME280;11867;51.198;11.966;2023-04-20T03:47:48;100755.22;;;5.75;100.00
32733;BME280;11867;51.198;11.966;2023-04-20T03:48:50;100760.53;;;5.58;100.00
32733;BME280;11867;51.198;11.966;2023-04-20T03:49:53;100761.13;;;5.37;100.00
32733;BME280;11867;51.198;11.966;2023-04-20T03:50:54;100759.72;;;5.34;100.00
32733;BME280;11867;51.198;11.966;2023-04-20T03:51:57;100755.81;;;5.54;100.00
32733;BME280;11867;51.198;11.966;2023-04-20T03:52:58;100747.94;;;5.64;100.00
32733;BME280;11867;51.198;11.966;2023-04-20T03:54:01;100758.00;;;5.80;100.00
32733;BME280;11867;51.198;11.966;2023-04-20T03:55:03;100755.28;;;6.04;100.00
32733;BME280;11867;51.198;11.966;2023-04-20T03:56:06;100750.16;;;6.19;100.00
32733;BME280;11867;51.198;11.966;2023-04-20T03:57:08;100749.75;;;5.99;100.00
32733;BME280;11867;51.198;11.966;2023-04-20T03:58:10;100755.09;;;5.70;100.00
32733;BME280;11867;51.198;11.966;2023-04-20T03:59:16;100756.53;;;5.37;100.00
32733;BME280;11867;51.198;11.966;2023-04-20T04:00:19;100757.59;;;5.24;100.00
32733;BME280;11867;51.198;11.966;2023-04-20T04:01:21;100754.06;;;5.47;100.00
32733;BME280;11867;51.198;11.966;2023-04-20T04:02:23;100755.34;;;5.33;100.00
32733;BME280;11867;51.198;11.966;2023-04-20T04:03:25;100754.69;;;5.38;100.00
32733;BME280;11867;51.198;11.966;2023-04-20T04:04:28;100749.25;;;5.50;100.00
32733;BME280;11867;51.198;11.966;2023-04-20T04:05:30;100753.16;;;5.42;100.00
32733;BME280;11867;51.198;11.966;2023-04-20T04:06:33;100757.69;;;5.65;100.00
32733;BME280;11867;51.198;11.966;2023-04-20T04:07:35;100753.47;;;5.69;100.00
32733;BME280;11867;51.198;11.966;2023-04-20T04:08:37;100746.00;;;6.00;100.00
32733;BME280;11867;51.198;11.966;2023-04-20T04:09:39;100752.97;;;5.84;100.00
32733;BME280;11867;51.198;11.966;2023-04-20T04:10:41;100751.91;;;5.85;100.00
32733;BME280;11867;51.198;11.966;2023-04-20T04:11:43;100760.50;;;5.70;100.00
32733;BME280;11867;51.198;11.966;2023-04-20T04:12:45;100754.72;;;5.78;100.00
32733;BME280;11867;51.198;11.966;2023-04-20T04:13:48;100758.50;;;5.77;100.00
32733;BME280;11867;51.198;11.966;2023-04-20T04:14:51;100744.97;;;5.89;100.00
32733;BME280;11867;51.198;11.966;2023-04-20T04:15:53;100750.28;;;6.24;100.00
32733;BME280;11867;51.198;11.966;2023-04-20T04:16:55;100748.81;;;6.05;99.98
32733;BME280;11867;51.198;11.966;2023-04-20T04:17:57;100750.09;;;5.91;100.00
32733;BME280;11867;51.198;11.966;2023-04-20T04:18:59;100753.44;;;6.21;100.00
32733;BME280;11867;51.198;11.966;2023-04-20T04:20:02;100756.66;;;6.18;100.00
32733;BME280;11867;51.198;11.966;2023-04-20T04:21:04;100747.06;;;6.28;99.58
32733;BME280;11867;51.198;11.966;2023-04-20T04:22:08;100754.63;;;5.73;100.00
32733;BME280;11867;51.198;11.966;2023-04-20T04:23:10;100758.16;;;5.62;100.00
32733;BME280;11867;51.198;11.966;2023-04-20T04:24:12;100757.22;;;5.68;100.00
32733;BME280;11867;51.198;11.966;2023-04-20T04:25:15;100759.56;;;5.76;100.00
32733;BME280;11867;51.198;11.966;2023-04-20T04:26:17;100762.16;;;5.71;100.00
32733;BME280;11867;51.198;11.966;2023-04-20T04:27:21;100757.34;;;5.50;100.00
32733;BME280;11867;51.198;11.966;2023-04-20T04:28:23;100757.13;;;5.39;100.00
32733;BME280;11867;51.198;11.966;2023-04-20T04:29:26;100755.84;;;5.30;100.00
32733;BME280;11867;51.198;11.966;2023-04-20T04:30:29;100767.84;;;5.34;100.00
32733;BME280;11867;51.198;11.966;2023-04-20T04:31:32;100764.31;;;5.34;100.00
32733;BME280;11867;51.198;11.966;2023-04-20T04:32:34;100762.88;;;5.31;100.00
32733;BME280;11867;51.198;11.966;2023-04-20T04:33:37;100771.09;;;5.60;100.00
32733;BME280;11867;51.198;11.966;2023-04-20T04:34:38;100756.72;;;5.95;100.00
32733;BME280;11867;51.198;11.966;2023-04-20T04:35:44;100768.88;;;5.69;100.00
32733;BME280;11867;51.198;11.966;2023-04-20T04:36:46;100768.84;;;5.80;100.00
32733;BME280;11867;51.198;11.966;2023-04-20T04:37:48;100763.78;;;5.72;100.00
32733;BME280;11867;51.198;11.966;2023-04-20T04:38:50;100770.50;;;5.70;100.00
32733;BME280;11867;51.198;11.966;2023-04-20T04:39:52;100760.72;;;5.80;100.00
32733;BME280;11867;51.198;11.966;2023-04-20T04:40:54;100765.47;;;5.61;100.00
32733;BME280;11867;51.198;11.966;2023-04-20T04:41:57;100767.34;;;5.49;100.00
32733;BME280;11867;51.198;11.966;2023-04-20T04:42:59;100770.19;;;5.42;100.00
32733;BME280;11867;51.198;11.966;2023-04-20T04:44:01;100770.50;;;5.58;100.00
32733;BME280;11867;51.198;11.966;2023-04-20T04:45:04;100766.63;;;5.54;100.00
32733;BME280;11867;51.198;11.966;2023-04-20T04:46:10;100767.47;;;5.42;100.00
32733;BME280;11867;51.198;11.966;2023-04-20T04:47:12;100774.50;;;5.79;100.00
32733;BME280;11867;51.198;11.966;2023-04-20T04:48:16;100769.88;;;6.03;100.00
32733;BME280;11867;51.198;11.966;2023-04-20T04:49:17;100775.53;;;5.90;100.00
32733;BME280;11867;51.198;11.966;2023-04-20T04:50:21;100767.00;;;6.21;100.00
32733;BME280;11867;51.198;11.966;2023-04-20T04:51:23;100766.59;;;6.30;100.00
32733;BME280;11867;51.198;11.966;2023-04-20T04:52:26;100770.00;;;6.37;100.00
32733;BME280;11867;51.198;11.966;2023-04-20T04:53:28;100768.47;;;6.41;99.48
32733;BME280;11867;51.198;11.966;2023-04-20T04:54:31;100780.16;;;6.58;98.83
32733;BME280;11867;51.198;11.966;2023-04-20T04:55:33;100771.63;;;6.38;97.88
32733;BME280;11867;51.198;11.966;2023-04-20T04:56:35;100767.00;;;6.50;97.94
32733;BME280;11867;51.198;11.966;2023-04-20T04:57:37;100769.75;;;6.38;98.85
32733;BME280;11867;51.198;11.966;2023-04-20T04:58:39;100768.59;;;6.34;99.55
32733;BME280;11867;51.198;11.966;2023-04-20T04:59:41;100766.72;;;6.35;100.00
32733;BME280;11867;51.198;11.966;2023-04-20T05:00:43;100769.66;;;6.33;100.00
32733;BME280;11867;51.198;11.966;2023-04-20T05:01:47;100765.88;;;6.34;99.88
32733;BME280;11867;51.198;11.966;2023-04-20T05:02:49;100766.47;;;6.36;100.00
32733;BME280;11867;51.198;11.966;2023-04-20T05:03:53;100767.19;;;6.32;100.00
32733;BME280;11867;51.198;11.966;2023-04-20T05:04:55;100774.19;;;6.16;100.00
32733;BME280;11867;51.198;11.966;2023-04-20T05:05:57;100774.50;;;6.31;100.00
32733;BME280;11867;51.198;11.966;2023-04-20T05:06:59;100777.25;;;6.19;100.00
32733;BME280;11867;51.198;11.966;2023-04-20T05:08:01;100774.34;;;6.38;100.00
32733;BME280;11867;51.198;11.966;2023-04-20T05:09:03;100778.66;;;6.51;100.00
32733;BME280;11867;51.198;11.966;2023-04-20T05:10:06;100777.94;;;6.26;99.96
32733;BME280;11867;51.198;11.966;2023-04-20T05:11:08;100776.72;;;5.94;100.00
32733;BME280;11867;51.198;11.966;2023-04-20T05:12:11;100777.75;;;5.93;100.00
32733;BME280;11867;51.198;11.966;2023-04-20T05:13:12;100777.97;;;5.91;100.00
32733;BME280;11867;51.198;11.966;2023-04-20T05:14:15;100781.09;;;5.71;100.00
32733;BME280;11867;51.198;11.966;2023-04-20T05:15:16;100778.19;;;6.13;100.00
32733;BME280;11867;51.198;11.966;2023-04-20T05:16:19;100780.75;;;6.20;100.00
32733;BME280;11867;51.198;11.966;2023-04-20T05:17:22;100778.13;;;6.37;100.00
32733;BME280;11867;51.198;11.966;2023-04-20T05:18:25;100780.31;;;6.11;100.00
32733;BME280;11867;51.198;11.966;2023-04-20T05:19:26;100784.72;;;6.41;100.00
32733;BME280;11867;51.198;11.966;2023-04-20T05:20:29;100780.91;;;6.71;99.21
32733;BME280;11867;51.198;11.966;2023-04-20T05:21:30;100786.16;;;6.77;98.39
32733;BME280;11867;51.198;11.966;2023-04-20T05:22:33;100784.38;;;6.83;97.07
32733;BME280;11867;51.198;11.966;2023-04-20T05:23:35;100775.66;;;6.81;97.47
32733;BME280;11867;51.198;11.966;2023-04-20T05:24:37;100782.06;;;6.92;96.69